NAX147 EGKK-EDDM
Flight info
| Callsign | NAX147 |
|---|---|
| Flight time | 1h 23m |
| Altitude | 23000 |
| Route | DVR L9 KONAN/N0451F370 UL607 SPI DCT MOVUM T109 HAREM/N0393F230 T104 ROKIL ROKIL1B |
| Aircraft | B738/M-SDE2E3FGHIRWXY/LB1 |
Departure
| Time | 2026-05-07 20:24 |
|---|---|
| Airport | London Gatwick Airport (EGKK) |
Arrival
| Time | 2026-05-07 21:47 |
|---|---|
| Airport | Munich Airport (EDDM) |
| Time | Latitude | Longitude | Altitude | Speed | Heading |
|---|---|---|---|---|---|
| 2026-05-07 19:40 | 51.15324 | -0.17902 | 192 ft | 0 kts | 347° |
| 2026-05-07 20:05 | 51.15323 | -0.17902 | 192 ft | 0 kts | 347° |
| 2026-05-07 20:06 | 51.15310 | -0.17901 | 192 ft | 2 kts | 6° |
| 2026-05-07 20:06 | 51.15295 | -0.17902 | 192 ft | 2 kts | 357° |
| 2026-05-07 20:06 | 51.15280 | -0.17901 | 192 ft | 2 kts | 0° |
| 2026-05-07 20:06 | 51.15265 | -0.17901 | 193 ft | 2 kts | 359° |
| 2026-05-07 20:07 | 51.15250 | -0.17901 | 193 ft | 2 kts | 360° |
| 2026-05-07 20:07 | 51.15242 | -0.17901 | 193 ft | 1 kts | 346° |
| 2026-05-07 20:07 | 51.15236 | -0.17892 | 193 ft | 1 kts | 287° |
| 2026-05-07 20:07 | 51.15235 | -0.17883 | 193 ft | 0 kts | 252° |
| 2026-05-07 20:08 | 51.15237 | -0.17874 | 193 ft | 0 kts | 257° |
| 2026-05-07 20:09 | 51.15236 | -0.17877 | 193 ft | 2 kts | 257° |
| 2026-05-07 20:10 | 51.15207 | -0.18099 | 193 ft | 19 kts | 258° |
| 2026-05-07 20:10 | 51.15174 | -0.18354 | 194 ft | 26 kts | 259° |
| 2026-05-07 20:10 | 51.15140 | -0.18641 | 195 ft | 23 kts | 258° |
| 2026-05-07 20:10 | 51.15111 | -0.18853 | 195 ft | 23 kts | 257° |
| 2026-05-07 20:11 | 51.15070 | -0.19149 | 193 ft | 31 kts | 257° |
| 2026-05-07 20:11 | 51.15028 | -0.19454 | 191 ft | 18 kts | 258° |
| 2026-05-07 20:11 | 51.14994 | -0.19701 | 192 ft | 26 kts | 257° |
| 2026-05-07 20:11 | 51.14949 | -0.20024 | 194 ft | 33 kts | 257° |
| 2026-05-07 20:12 | 51.14904 | -0.20356 | 196 ft | 27 kts | 258° |
| 2026-05-07 20:12 | 51.14861 | -0.20663 | 195 ft | 13 kts | 257° |
| 2026-05-07 20:12 | 51.14855 | -0.20704 | 195 ft | 6 kts | 259° |
| 2026-05-07 20:12 | 51.14840 | -0.20827 | 195 ft | 16 kts | 258° |
| 2026-05-07 20:13 | 51.14809 | -0.21049 | 197 ft | 24 kts | 258° |
| 2026-05-07 20:13 | 51.14767 | -0.21293 | 198 ft | 18 kts | 258° |
| 2026-05-07 20:13 | 51.14742 | -0.21383 | 201 ft | 0 kts | 219° |
| 2026-05-07 20:16 | 51.14732 | -0.21394 | 201 ft | 0 kts | 204° |
| 2026-05-07 20:18 | 51.14728 | -0.21396 | 201 ft | 0 kts | 191° |
| 2026-05-07 20:18 | 51.14724 | -0.21397 | 201 ft | 0 kts | 189° |
| 2026-05-07 20:19 | 51.14722 | -0.21397 | 201 ft | 2 kts | 188° |
| 2026-05-07 20:19 | 51.14698 | -0.21396 | 201 ft | 0 kts | 169° |
| 2026-05-07 20:20 | 51.14697 | -0.21396 | 201 ft | 0 kts | 169° |
| 2026-05-07 20:20 | 51.14690 | -0.21393 | 201 ft | 0 kts | 160° |
| 2026-05-07 20:20 | 51.14689 | -0.21392 | 201 ft | 1 kts | 159° |
| 2026-05-07 20:21 | 51.14685 | -0.21389 | 201 ft | 0 kts | 153° |
| 2026-05-07 20:21 | 51.14674 | -0.21377 | 201 ft | 6 kts | 141° |
| 2026-05-07 20:21 | 51.14644 | -0.21343 | 201 ft | 0 kts | 153° |
| 2026-05-07 20:22 | 51.14619 | -0.21328 | 201 ft | 0 kts | 163° |
| 2026-05-07 20:22 | 51.14615 | -0.21326 | 201 ft | 0 kts | 165° |
| 2026-05-07 20:23 | 51.14597 | -0.21317 | 201 ft | 7 kts | 161° |
| 2026-05-07 20:23 | 51.14529 | -0.21226 | 199 ft | 19 kts | 111° |
| 2026-05-07 20:23 | 51.14530 | -0.21093 | 198 ft | 0 kts | 78° |
| 2026-05-07 20:24 | 51.14579 | -0.20735 | 195 ft | 81 kts | 78° |
| 2026-05-07 20:24 | 51.14769 | -0.19355 | 203 ft | 167 kts | 78° |
| 2026-05-07 20:24 | 51.15027 | -0.17479 | 1096 ft | 181 kts | 79° |
| 2026-05-07 20:24 | 51.15291 | -0.15487 | 2006 ft | 191 kts | 80° |
| 2026-05-07 20:25 | 51.15562 | -0.13399 | 2659 ft | 203 kts | 80° |
| 2026-05-07 20:25 | 51.15860 | -0.11107 | 3252 ft | 220 kts | 80° |
| 2026-05-07 20:25 | 51.16177 | -0.08694 | 3854 ft | 234 kts | 79° |
| 2026-05-07 20:25 | 51.16515 | -0.06130 | 4633 ft | 240 kts | 79° |
| 2026-05-07 20:26 | 51.16856 | -0.03495 | 5425 ft | 248 kts | 81° |
| 2026-05-07 20:26 | 51.17049 | -0.00766 | 5914 ft | 256 kts | 88° |
| 2026-05-07 20:26 | 51.17085 | 0.02147 | 6021 ft | 266 kts | 91° |
| 2026-05-07 20:26 | 51.17059 | 0.05113 | 6061 ft | 266 kts | 91° |
| 2026-05-07 20:27 | 51.17022 | 0.08063 | 6078 ft | 268 kts | 91° |
| 2026-05-07 20:27 | 51.16992 | 0.11008 | 6072 ft | 267 kts | 91° |
| 2026-05-07 20:27 | 51.16973 | 0.13965 | 6204 ft | 267 kts | 91° |
| 2026-05-07 20:27 | 51.16957 | 0.17048 | 6639 ft | 290 kts | 91° |
| 2026-05-07 20:28 | 51.16941 | 0.20382 | 7078 ft | 314 kts | 91° |
| 2026-05-07 20:28 | 51.16924 | 0.23946 | 7505 ft | 327 kts | 91° |
| 2026-05-07 20:28 | 51.16909 | 0.27544 | 7938 ft | 331 kts | 91° |
| 2026-05-07 20:28 | 51.16894 | 0.31229 | 8405 ft | 335 kts | 91° |
| 2026-05-07 20:29 | 51.16882 | 0.34932 | 8835 ft | 337 kts | 90° |
| 2026-05-07 20:29 | 51.16872 | 0.38664 | 9292 ft | 340 kts | 90° |
| 2026-05-07 20:29 | 51.16863 | 0.42475 | 9737 ft | 344 kts | 90° |
| 2026-05-07 20:29 | 51.16854 | 0.46281 | 10171 ft | 347 kts | 90° |
| 2026-05-07 20:30 | 51.16843 | 0.50131 | 10587 ft | 348 kts | 90° |
| 2026-05-07 20:30 | 51.16831 | 0.53986 | 11021 ft | 351 kts | 91° |
| 2026-05-07 20:30 | 51.16817 | 0.57830 | 11441 ft | 353 kts | 91° |
| 2026-05-07 20:30 | 51.16726 | 0.61758 | 11872 ft | 355 kts | 94° |
| 2026-05-07 20:31 | 51.16537 | 0.65695 | 12304 ft | 357 kts | 96° |
| 2026-05-07 20:31 | 51.16318 | 0.69611 | 12717 ft | 359 kts | 96° |
| 2026-05-07 20:31 | 51.16270 | 0.73591 | 13144 ft | 363 kts | 88° |
| 2026-05-07 20:31 | 51.16540 | 0.77602 | 13570 ft | 366 kts | 83° |
| 2026-05-07 20:32 | 51.16924 | 0.81632 | 14000 ft | 369 kts | 82° |
| 2026-05-07 20:32 | 51.17336 | 0.85649 | 14422 ft | 371 kts | 82° |
| 2026-05-07 20:32 | 51.17759 | 0.89718 | 14859 ft | 374 kts | 82° |
| 2026-05-07 20:32 | 51.18180 | 0.93765 | 15283 ft | 376 kts | 81° |
| 2026-05-07 20:33 | 51.18609 | 0.97909 | 15708 ft | 380 kts | 81° |
| 2026-05-07 20:33 | 51.19032 | 1.02018 | 16143 ft | 382 kts | 81° |
| 2026-05-07 20:33 | 51.19460 | 1.06194 | 16569 ft | 385 kts | 81° |
| 2026-05-07 20:33 | 51.19890 | 1.10418 | 17001 ft | 388 kts | 81° |
| 2026-05-07 20:34 | 51.20321 | 1.14684 | 17430 ft | 391 kts | 81° |
| 2026-05-07 20:34 | 51.20647 | 1.18952 | 17842 ft | 393 kts | 89° |
| 2026-05-07 20:34 | 51.20370 | 1.23306 | 18039 ft | 395 kts | 102° |
| 2026-05-07 20:34 | 51.19737 | 1.27483 | 18075 ft | 393 kts | 105° |
| 2026-05-07 20:35 | 51.19065 | 1.31710 | 18067 ft | 391 kts | 104° |
| 2026-05-07 20:35 | 51.18472 | 1.35962 | 18071 ft | 392 kts | 102° |
| 2026-05-07 20:35 | 51.17977 | 1.40201 | 18074 ft | 392 kts | 100° |
| 2026-05-07 20:35 | 51.17553 | 1.44498 | 18183 ft | 401 kts | 99° |
| 2026-05-07 20:36 | 51.17178 | 1.48847 | 19095 ft | 399 kts | 98° |
| 2026-05-07 20:36 | 51.16825 | 1.53215 | 19761 ft | 403 kts | 97° |
| 2026-05-07 20:36 | 51.16474 | 1.57678 | 20396 ft | 408 kts | 97° |
| 2026-05-07 20:36 | 51.16124 | 1.62154 | 21052 ft | 411 kts | 97° |
| 2026-05-07 20:37 | 51.15770 | 1.66656 | 21666 ft | 415 kts | 98° |
| 2026-05-07 20:37 | 51.15407 | 1.71237 | 22274 ft | 419 kts | 98° |
| 2026-05-07 20:37 | 51.15036 | 1.75885 | 22876 ft | 423 kts | 98° |
| 2026-05-07 20:37 | 51.14662 | 1.80527 | 23478 ft | 426 kts | 98° |
| 2026-05-07 20:38 | 51.14285 | 1.85190 | 24038 ft | 430 kts | 98° |
| 2026-05-07 20:38 | 51.13903 | 1.89868 | 24573 ft | 434 kts | 98° |
| 2026-05-07 20:38 | 51.13510 | 1.94658 | 25106 ft | 437 kts | 98° |
| 2026-05-07 20:38 | 51.13112 | 1.99479 | 25630 ft | 441 kts | 98° |
| 2026-05-07 20:39 | 51.12751 | 2.04317 | 26212 ft | 443 kts | 97° |
| 2026-05-07 20:39 | 51.12468 | 2.09104 | 26944 ft | 441 kts | 96° |
| 2026-05-07 20:39 | 51.12219 | 2.13924 | 27585 ft | 440 kts | 95° |
| 2026-05-07 20:39 | 51.11979 | 2.18786 | 28223 ft | 439 kts | 95° |
| 2026-05-07 20:40 | 51.11742 | 2.23596 | 28822 ft | 439 kts | 95° |
| 2026-05-07 20:40 | 51.11500 | 2.28397 | 29422 ft | 438 kts | 95° |
| 2026-05-07 20:40 | 51.11248 | 2.33259 | 29994 ft | 437 kts | 95° |
| 2026-05-07 20:40 | 51.10994 | 2.38029 | 30564 ft | 436 kts | 95° |
| 2026-05-07 20:41 | 51.10733 | 2.42813 | 31083 ft | 435 kts | 96° |
| 2026-05-07 20:41 | 51.10466 | 2.47631 | 31573 ft | 435 kts | 96° |
| 2026-05-07 20:41 | 51.10195 | 2.52425 | 32058 ft | 434 kts | 96° |
| 2026-05-07 20:41 | 51.09923 | 2.57209 | 32534 ft | 433 kts | 96° |
| 2026-05-07 20:42 | 51.09615 | 2.61967 | 32967 ft | 433 kts | 98° |
| 2026-05-07 20:42 | 51.09122 | 2.66702 | 33407 ft | 431 kts | 103° |
| 2026-05-07 20:42 | 51.08445 | 2.71312 | 33825 ft | 430 kts | 106° |
| 2026-05-07 20:42 | 51.07655 | 2.75917 | 34232 ft | 429 kts | 108° |
| 2026-05-07 20:43 | 51.06827 | 2.80445 | 34606 ft | 429 kts | 108° |
| 2026-05-07 20:43 | 51.05989 | 2.84933 | 34969 ft | 429 kts | 108° |
| 2026-05-07 20:43 | 51.05131 | 2.89496 | 35224 ft | 428 kts | 108° |
| 2026-05-07 20:43 | 51.04285 | 2.94005 | 35441 ft | 427 kts | 108° |
| 2026-05-07 20:44 | 51.03450 | 2.98474 | 35642 ft | 427 kts | 108° |
| 2026-05-07 20:44 | 51.02601 | 3.03028 | 35840 ft | 427 kts | 108° |
| 2026-05-07 20:44 | 51.01770 | 3.07492 | 36027 ft | 427 kts | 108° |
| 2026-05-07 20:44 | 51.00930 | 3.12017 | 36190 ft | 428 kts | 108° |
| 2026-05-07 20:45 | 51.00097 | 3.16505 | 36416 ft | 428 kts | 108° |
| 2026-05-07 20:45 | 50.99256 | 3.21029 | 36666 ft | 428 kts | 108° |
| 2026-05-07 20:45 | 50.98412 | 3.25572 | 36915 ft | 428 kts | 108° |
| 2026-05-07 20:45 | 50.97573 | 3.30070 | 37169 ft | 433 kts | 108° |
| 2026-05-07 20:46 | 50.96723 | 3.34622 | 37099 ft | 428 kts | 108° |
| 2026-05-07 20:46 | 50.95055 | 3.43537 | 36748 ft | 424 kts | 108° |
| 2026-05-07 20:46 | 50.94221 | 3.47974 | 36965 ft | 421 kts | 108° |
| 2026-05-07 20:47 | 50.93380 | 3.52439 | 37048 ft | 425 kts | 108° |
| 2026-05-07 20:47 | 50.91671 | 3.61458 | 37063 ft | 431 kts | 108° |
| 2026-05-07 20:47 | 50.90808 | 3.65994 | 37211 ft | 433 kts | 109° |
| 2026-05-07 20:48 | 50.89941 | 3.70524 | 37103 ft | 427 kts | 109° |
| 2026-05-07 20:48 | 50.88221 | 3.79446 | 37070 ft | 425 kts | 109° |
| 2026-05-07 20:49 | 50.86476 | 3.88437 | 36754 ft | 427 kts | 109° |
| 2026-05-07 20:49 | 50.85609 | 3.92891 | 36978 ft | 424 kts | 108° |
| 2026-05-07 20:49 | 50.84736 | 3.97369 | 37177 ft | 431 kts | 109° |
| 2026-05-07 20:50 | 50.82979 | 4.06347 | 37072 ft | 424 kts | 109° |
| 2026-05-07 20:50 | 50.81230 | 4.15247 | 37063 ft | 428 kts | 109° |
| 2026-05-07 20:50 | 50.80351 | 4.19701 | 36820 ft | 426 kts | 109° |
| 2026-05-07 20:51 | 50.79475 | 4.24139 | 37011 ft | 425 kts | 109° |
| 2026-05-07 20:51 | 50.78589 | 4.28609 | 37329 ft | 430 kts | 109° |
| 2026-05-07 20:51 | 50.77689 | 4.33134 | 37161 ft | 434 kts | 109° |
| 2026-05-07 20:52 | 50.75911 | 4.42061 | 37075 ft | 424 kts | 108° |
| 2026-05-07 20:52 | 50.74125 | 4.50982 | 37063 ft | 429 kts | 109° |
| 2026-05-07 20:53 | 50.72335 | 4.59888 | 36927 ft | 424 kts | 109° |
| 2026-05-07 20:53 | 50.71453 | 4.64318 | 37038 ft | 427 kts | 108° |
| 2026-05-07 20:53 | 50.70586 | 4.68762 | 37059 ft | 431 kts | 109° |
| 2026-05-07 20:54 | 50.68832 | 4.77841 | 37064 ft | 429 kts | 109° |
| 2026-05-07 20:54 | 50.67137 | 4.86593 | 37064 ft | 429 kts | 109° |
| 2026-05-07 20:55 | 50.65364 | 4.95617 | 37221 ft | 431 kts | 109° |
| 2026-05-07 20:55 | 50.64464 | 5.00056 | 36912 ft | 425 kts | 109° |
| 2026-05-07 20:55 | 50.63565 | 5.04430 | 37041 ft | 425 kts | 109° |
| 2026-05-07 20:56 | 50.61708 | 5.13385 | 37067 ft | 432 kts | 110° |
| 2026-05-07 20:56 | 50.59855 | 5.22296 | 37069 ft | 429 kts | 109° |
| 2026-05-07 20:57 | 50.58006 | 5.31174 | 37072 ft | 429 kts | 109° |
| 2026-05-07 20:57 | 50.56156 | 5.40022 | 37071 ft | 429 kts | 109° |
| 2026-05-07 20:58 | 50.54285 | 5.48935 | 37071 ft | 429 kts | 109° |
| 2026-05-07 20:58 | 50.52424 | 5.57772 | 37069 ft | 429 kts | 109° |
| 2026-05-07 20:59 | 50.50595 | 5.66633 | 37067 ft | 429 kts | 108° |
| 2026-05-07 20:59 | 50.48949 | 5.75674 | 36993 ft | 430 kts | 107° |
| 2026-05-07 21:00 | 50.47368 | 5.84642 | 37057 ft | 430 kts | 107° |
| 2026-05-07 21:00 | 50.45750 | 5.93688 | 37056 ft | 431 kts | 107° |
| 2026-05-07 21:00 | 50.44931 | 5.98207 | 37316 ft | 429 kts | 107° |
| 2026-05-07 21:01 | 50.44120 | 6.02658 | 37168 ft | 432 kts | 107° |
| 2026-05-07 21:01 | 50.42475 | 6.11608 | 36764 ft | 423 kts | 107° |
| 2026-05-07 21:01 | 50.41664 | 6.16003 | 36868 ft | 425 kts | 107° |
| 2026-05-07 21:02 | 50.40841 | 6.20439 | 36992 ft | 426 kts | 107° |
| 2026-05-07 21:02 | 50.39169 | 6.29409 | 37057 ft | 432 kts | 108° |
| 2026-05-07 21:03 | 50.37489 | 6.38387 | 37067 ft | 430 kts | 108° |
| 2026-05-07 21:03 | 50.35805 | 6.47354 | 37073 ft | 431 kts | 108° |
| 2026-05-07 21:04 | 50.34115 | 6.56306 | 37072 ft | 431 kts | 108° |
| 2026-05-07 21:04 | 50.32421 | 6.65234 | 37073 ft | 431 kts | 108° |
| 2026-05-07 21:05 | 50.30704 | 6.74235 | 37075 ft | 431 kts | 108° |
| 2026-05-07 21:05 | 50.28992 | 6.83164 | 37073 ft | 431 kts | 108° |
| 2026-05-07 21:06 | 50.27264 | 6.92136 | 37077 ft | 431 kts | 108° |
| 2026-05-07 21:06 | 50.25533 | 7.01086 | 37266 ft | 433 kts | 108° |
| 2026-05-07 21:06 | 50.24653 | 7.05618 | 37133 ft | 430 kts | 108° |
| 2026-05-07 21:07 | 50.23793 | 7.10045 | 37098 ft | 425 kts | 108° |
| 2026-05-07 21:07 | 50.22077 | 7.18841 | 37087 ft | 429 kts | 108° |
| 2026-05-07 21:08 | 50.20331 | 7.27745 | 37085 ft | 430 kts | 108° |
| 2026-05-07 21:08 | 50.18578 | 7.36645 | 37092 ft | 431 kts | 108° |
| 2026-05-07 21:09 | 50.16834 | 7.45464 | 37078 ft | 428 kts | 108° |
| 2026-05-07 21:09 | 50.15080 | 7.54279 | 37077 ft | 427 kts | 108° |
| 2026-05-07 21:10 | 50.13311 | 7.63133 | 37078 ft | 429 kts | 108° |
| 2026-05-07 21:10 | 50.11530 | 7.72007 | 37078 ft | 429 kts | 109° |
| 2026-05-07 21:11 | 50.09748 | 7.80845 | 37077 ft | 429 kts | 109° |
| 2026-05-07 21:11 | 50.07064 | 7.94089 | 37080 ft | 429 kts | 109° |
| 2026-05-07 21:12 | 50.05259 | 8.02945 | 37083 ft | 429 kts | 109° |
| 2026-05-07 21:12 | 50.03466 | 8.11700 | 37079 ft | 428 kts | 109° |
| 2026-05-07 21:13 | 50.01647 | 8.20545 | 37077 ft | 427 kts | 109° |
| 2026-05-07 21:13 | 49.99832 | 8.29329 | 37084 ft | 429 kts | 109° |
| 2026-05-07 21:14 | 49.98004 | 8.38139 | 37085 ft | 429 kts | 109° |
| 2026-05-07 21:14 | 49.96171 | 8.46907 | 37086 ft | 430 kts | 109° |
| 2026-05-07 21:15 | 49.93980 | 8.55467 | 37085 ft | 429 kts | 117° |
| 2026-05-07 21:15 | 49.91139 | 8.63568 | 37078 ft | 429 kts | 121° |
| 2026-05-07 21:16 | 49.88114 | 8.71578 | 37080 ft | 430 kts | 122° |
| 2026-05-07 21:16 | 49.85112 | 8.79509 | 37078 ft | 428 kts | 122° |
| 2026-05-07 21:17 | 49.82114 | 8.87486 | 37076 ft | 428 kts | 122° |
| 2026-05-07 21:17 | 49.79144 | 8.95417 | 37075 ft | 429 kts | 121° |
| 2026-05-07 21:18 | 49.76153 | 9.03406 | 37078 ft | 429 kts | 121° |
| 2026-05-07 21:18 | 49.73174 | 9.11348 | 37075 ft | 430 kts | 121° |
| 2026-05-07 21:19 | 49.70174 | 9.19323 | 37083 ft | 430 kts | 121° |
| 2026-05-07 21:19 | 49.67179 | 9.27264 | 37081 ft | 430 kts | 122° |
| 2026-05-07 21:20 | 49.64179 | 9.35193 | 37077 ft | 431 kts | 122° |
| 2026-05-07 21:20 | 49.60945 | 9.42943 | 37082 ft | 429 kts | 129° |
| 2026-05-07 21:21 | 49.57152 | 9.50002 | 37075 ft | 428 kts | 133° |
| 2026-05-07 21:21 | 49.53171 | 9.56862 | 37075 ft | 429 kts | 134° |
| 2026-05-07 21:22 | 49.49206 | 9.63663 | 37079 ft | 430 kts | 133° |
| 2026-05-07 21:22 | 49.45239 | 9.70512 | 37077 ft | 429 kts | 134° |
| 2026-05-07 21:23 | 49.41295 | 9.77341 | 37085 ft | 430 kts | 134° |
| 2026-05-07 21:23 | 49.37331 | 9.84209 | 37083 ft | 429 kts | 134° |
| 2026-05-07 21:24 | 49.33373 | 9.91043 | 37085 ft | 430 kts | 134° |
| 2026-05-07 21:24 | 49.29435 | 9.97819 | 37083 ft | 431 kts | 134° |
| 2026-05-07 21:25 | 49.25426 | 10.04702 | 37084 ft | 433 kts | 134° |
| 2026-05-07 21:25 | 49.21446 | 10.11522 | 37081 ft | 432 kts | 134° |
| 2026-05-07 21:26 | 49.17448 | 10.18355 | 37081 ft | 432 kts | 134° |
| 2026-05-07 21:26 | 49.13441 | 10.25182 | 37080 ft | 431 kts | 134° |
| 2026-05-07 21:27 | 49.09387 | 10.31812 | 36840 ft | 424 kts | 136° |
| 2026-05-07 21:27 | 49.07323 | 10.35110 | 36345 ft | 429 kts | 136° |
| 2026-05-07 21:27 | 49.05262 | 10.38388 | 35545 ft | 438 kts | 136° |
| 2026-05-07 21:28 | 49.03130 | 10.41773 | 34400 ft | 453 kts | 135° |
| 2026-05-07 21:28 | 49.00936 | 10.45255 | 33135 ft | 468 kts | 135° |
| 2026-05-07 21:28 | 48.98696 | 10.48813 | 31754 ft | 479 kts | 135° |
| 2026-05-07 21:28 | 48.96376 | 10.52500 | 30205 ft | 487 kts | 134° |
| 2026-05-07 21:29 | 48.94173 | 10.56000 | 28678 ft | 492 kts | 134° |
| 2026-05-07 21:29 | 48.92400 | 10.58818 | 27582 ft | 491 kts | 134° |
| 2026-05-07 21:29 | 48.90060 | 10.62539 | 26572 ft | 481 kts | 135° |
| 2026-05-07 21:29 | 48.87780 | 10.66166 | 25670 ft | 470 kts | 135° |
| 2026-05-07 21:30 | 48.85557 | 10.69697 | 25006 ft | 454 kts | 135° |
| 2026-05-07 21:30 | 48.83414 | 10.73097 | 24446 ft | 438 kts | 136° |
| 2026-05-07 21:30 | 48.81359 | 10.76355 | 23931 ft | 423 kts | 136° |
| 2026-05-07 21:30 | 48.79366 | 10.79504 | 23457 ft | 408 kts | 136° |
| 2026-05-07 21:31 | 48.77424 | 10.82561 | 23049 ft | 393 kts | 136° |
| 2026-05-07 21:31 | 48.75563 | 10.85482 | 22578 ft | 382 kts | 136° |
| 2026-05-07 21:31 | 48.73751 | 10.88319 | 21877 ft | 378 kts | 136° |
| 2026-05-07 21:31 | 48.71924 | 10.91173 | 21157 ft | 374 kts | 136° |
| 2026-05-07 21:32 | 48.70136 | 10.93964 | 20435 ft | 371 kts | 136° |
| 2026-05-07 21:32 | 48.68348 | 10.96751 | 19712 ft | 368 kts | 136° |
| 2026-05-07 21:32 | 48.66586 | 10.99495 | 19071 ft | 363 kts | 136° |
| 2026-05-07 21:32 | 48.64842 | 11.02210 | 18377 ft | 360 kts | 136° |
| 2026-05-07 21:33 | 48.63141 | 11.04858 | 17751 ft | 355 kts | 136° |
| 2026-05-07 21:33 | 48.61422 | 11.07532 | 17052 ft | 352 kts | 136° |
| 2026-05-07 21:33 | 48.59727 | 11.10158 | 16428 ft | 348 kts | 136° |
| 2026-05-07 21:33 | 48.58026 | 11.12629 | 16021 ft | 336 kts | 141° |
| 2026-05-07 21:34 | 48.56239 | 11.14794 | 15677 ft | 324 kts | 146° |
| 2026-05-07 21:34 | 48.54419 | 11.16783 | 15126 ft | 321 kts | 143° |
| 2026-05-07 21:34 | 48.52930 | 11.19237 | 14541 ft | 322 kts | 121° |
| 2026-05-07 21:34 | 48.52214 | 11.22370 | 13967 ft | 321 kts | 97° |
| 2026-05-07 21:35 | 48.52249 | 11.25725 | 13396 ft | 318 kts | 79° |
| 2026-05-07 21:35 | 48.52681 | 11.28952 | 12838 ft | 316 kts | 76° |
| 2026-05-07 21:35 | 48.53151 | 11.32206 | 12513 ft | 330 kts | 76° |
| 2026-05-07 21:35 | 48.53646 | 11.35675 | 12327 ft | 340 kts | 77° |
| 2026-05-07 21:36 | 48.54145 | 11.39194 | 12003 ft | 347 kts | 77° |
| 2026-05-07 21:36 | 48.54651 | 11.42771 | 11300 ft | 346 kts | 77° |
| 2026-05-07 21:36 | 48.55146 | 11.46276 | 10546 ft | 344 kts | 77° |
| 2026-05-07 21:36 | 48.55638 | 11.49743 | 9807 ft | 342 kts | 77° |
| 2026-05-07 21:37 | 48.56129 | 11.53216 | 9054 ft | 339 kts | 77° |
| 2026-05-07 21:37 | 48.56561 | 11.56711 | 8283 ft | 337 kts | 82° |
| 2026-05-07 21:37 | 48.56573 | 11.60199 | 7548 ft | 333 kts | 100° |
| 2026-05-07 21:37 | 48.55764 | 11.63355 | 7158 ft | 316 kts | 120° |
| 2026-05-07 21:38 | 48.54606 | 11.66074 | 6883 ft | 300 kts | 126° |
| 2026-05-07 21:38 | 48.53426 | 11.68588 | 6631 ft | 285 kts | 127° |
| 2026-05-07 21:38 | 48.52323 | 11.70965 | 6436 ft | 271 kts | 126° |
| 2026-05-07 21:38 | 48.51307 | 11.73236 | 6291 ft | 256 kts | 125° |
| 2026-05-07 21:39 | 48.50355 | 11.75424 | 6174 ft | 242 kts | 124° |
| 2026-05-07 21:39 | 48.49447 | 11.77540 | 5880 ft | 237 kts | 124° |
| 2026-05-07 21:39 | 48.48573 | 11.79584 | 5566 ft | 233 kts | 124° |
| 2026-05-07 21:39 | 48.47703 | 11.81613 | 5297 ft | 228 kts | 123° |
| 2026-05-07 21:40 | 48.46849 | 11.83607 | 4969 ft | 226 kts | 123° |
| 2026-05-07 21:40 | 48.46005 | 11.85581 | 4716 ft | 221 kts | 123° |
| 2026-05-07 21:40 | 48.45190 | 11.87484 | 4468 ft | 215 kts | 123° |
| 2026-05-07 21:40 | 48.44389 | 11.89350 | 4209 ft | 209 kts | 122° |
| 2026-05-07 21:41 | 48.43607 | 11.91169 | 3998 ft | 204 kts | 122° |
| 2026-05-07 21:41 | 48.42851 | 11.92928 | 3973 ft | 200 kts | 122° |
| 2026-05-07 21:41 | 48.42080 | 11.94718 | 3973 ft | 204 kts | 122° |
| 2026-05-07 21:41 | 48.41318 | 11.96489 | 3974 ft | 204 kts | 122° |
| 2026-05-07 21:42 | 48.40548 | 11.98277 | 3973 ft | 204 kts | 122° |
| 2026-05-07 21:42 | 48.39767 | 12.00084 | 3971 ft | 204 kts | 123° |
| 2026-05-07 21:42 | 48.38992 | 12.01871 | 3971 ft | 204 kts | 123° |
| 2026-05-07 21:42 | 48.38212 | 12.03653 | 3979 ft | 204 kts | 126° |
| 2026-05-07 21:43 | 48.37133 | 12.05004 | 3967 ft | 204 kts | 159° |
| 2026-05-07 21:43 | 48.35757 | 12.05167 | 3970 ft | 203 kts | 196° |
| 2026-05-07 21:43 | 48.34589 | 12.04062 | 3967 ft | 194 kts | 234° |
| 2026-05-07 21:43 | 48.34162 | 12.02215 | 3971 ft | 190 kts | 273° |
| 2026-05-07 21:44 | 48.34462 | 12.00288 | 3975 ft | 190 kts | 288° |
| 2026-05-07 21:44 | 48.34836 | 11.98388 | 3936 ft | 192 kts | 285° |
| 2026-05-07 21:44 | 48.35130 | 11.96433 | 3629 ft | 193 kts | 278° |
| 2026-05-07 21:44 | 48.35186 | 11.94445 | 3343 ft | 184 kts | 270° |
| 2026-05-07 21:45 | 48.35148 | 11.92609 | 3102 ft | 171 kts | 268° |
| 2026-05-07 21:45 | 48.35076 | 11.90855 | 2901 ft | 165 kts | 266° |
| 2026-05-07 21:45 | 48.34983 | 11.89141 | 2651 ft | 165 kts | 265° |
| 2026-05-07 21:45 | 48.34883 | 11.87474 | 2433 ft | 154 kts | 265° |
| 2026-05-07 21:46 | 48.34788 | 11.85911 | 2224 ft | 146 kts | 265° |
| 2026-05-07 21:46 | 48.34695 | 11.84418 | 2029 ft | 145 kts | 265° |
| 2026-05-07 21:46 | 48.34619 | 11.82918 | 1857 ft | 143 kts | 267° |
| 2026-05-07 21:46 | 48.34549 | 11.81432 | 1670 ft | 142 kts | 266° |
| 2026-05-07 21:47 | 48.34439 | 11.79926 | 1488 ft | 142 kts | 264° |
| 2026-05-07 21:47 | 48.34335 | 11.78568 | 1474 ft | 108 kts | 264° |
| 2026-05-07 21:47 | 48.34275 | 11.77800 | 1473 ft | 43 kts | 263° |